Time;durP1;ratioP1;P1;durP2;ratioP2;P2;SDS_P1;SDS_P2;PMS_P1;PMS_P2;Temp;Humidity;BMP_temperature;BMP_pressure;BME280_temperature;BME280_humidity;BME280_pressure;Samples;Min_cycle;Max_cycle;Signal;HPM_P1;HPM_P2
2023/09/29 00:00:33;;;;;;;18.13;8.07;;;;;;;18.79;100.00;101617.50;5093866;28;20494;-71
2023/09/29 00:02:59;;;;;;;21.13;8.45;;;;;;;18.32;100.00;101499.81;5094087;28;20036;-72
2023/09/29 00:05:25;;;;;;;22.30;8.43;;;;;;;18.72;100.00;101558.47;5093666;28;20486;-72
2023/09/29 00:07:51;;;;;;;18.63;8.55;;;;;;;18.32;100.00;101494.66;5075585;28;20035;-71
2023/09/29 00:10:17;;;;;;;21.30;8.85;;;;;;;18.49;100.00;101541.28;5075447;28;20028;-71
2023/09/29 00:12:43;;;;;;;20.10;9.18;;;;;;;18.43;100.00;101508.00;5075574;28;20557;-71
2023/09/29 00:15:10;;;;;;;21.17;10.00;;;;;;;18.51;100.00;101549.78;5093331;28;20539;-71
2023/09/29 00:17:36;;;;;;;19.27;9.88;;;;;;;18.55;100.00;101533.34;5093625;28;20047;-71
2023/09/29 00:20:24;;;;;;;17.33;8.77;;;;;;;18.26;100.00;101483.72;5093518;28;20509;-71
2023/09/29 00:22:58;;;;;;;16.45;8.35;;;;;;;18.57;100.00;101530.69;5092727;28;20040;-71
2023/09/29 00:25:24;;;;;;;18.70;7.07;;;;;;;18.45;100.00;101487.34;5093494;28;20028;-71
2023/09/29 00:27:50;;;;;;;13.38;5.70;;;;;;;18.79;100.00;101424.22;5093474;28;20426;-71
2023/09/29 00:30:16;;;;;;;15.25;4.10;;;;;;;19.36;100.00;101351.44;5093414;28;20024;-71
2023/09/29 00:32:46;;;;;;;13.98;3.50;;;;;;;19.49;100.00;101261.47;5092013;28;20047;-71
2023/09/29 00:35:27;;;;;;;17.92;3.33;;;;;;;19.69;100.00;101116.84;5093061;28;20055;-71
2023/09/29 00:37:59;;;;;;;14.33;4.50;;;;;;;19.71;100.00;100963.59;5093152;28;20485;-71
2023/09/29 00:40:25;;;;;;;14.68;2.90;;;;;;;19.15;100.00;100913.09;5093380;28;20032;-71
2023/09/29 00:42:52;;;;;;;11.05;3.08;;;;;;;19.63;100.00;100947.66;5092779;28;20506;-72
2023/09/29 00:45:25;;;;;;;16.60;3.20;;;;;;;19.73;100.00;100919.66;5092870;28;20070;-71
2023/09/29 00:47:52;;;;;;;12.32;2.85;;;;;;;19.63;100.00;100896.06;5080824;28;20020;-72
2023/09/29 00:50:21;;;;;;;15.63;3.45;;;;;;;19.55;100.00;100845.78;5072718;28;20029;-71
2023/09/29 00:52:49;;;;;;;16.30;3.30;;;;;;;19.66;100.00;100864.94;5072380;28;20472;-71
2023/09/29 00:55:17;;;;;;;11.07;2.80;;;;;;;19.88;100.00;100906.81;5071270;28;20020;-71
2023/09/29 00:57:47;;;;;;;16.58;3.10;;;;;;;19.89;100.00;100895.56;5072502;28;20033;-71
2023/09/29 01:02:55;;;;;;;11.77;3.03;;;;;;;19.79;100.00;100912.44;5071747;28;20032;-72
2023/09/29 01:05:21;;;;;;;13.27;2.83;;;;;;;19.32;100.00;100840.88;5072570;28;20059;-72
2023/09/29 01:07:46;;;;;;;16.00;3.05;;;;;;;19.33;100.00;100855.50;5075526;28;20498;-72
2023/09/29 01:10:13;;;;;;;15.30;2.85;;;;;;;19.49;100.00;100901.06;5082223;28;20225;-72
2023/09/29 01:12:39;;;;;;;11.07;2.95;;;;;;;19.55;100.00;100900.78;5072631;28;20115;-70
2023/09/29 01:15:05;;;;;;;11.07;2.90;;;;;;;19.34;100.00;100867.47;5092515;28;20040;-72
2023/09/29 01:17:31;;;;;;;14.55;3.10;;;;;;;19.16;100.00;100873.50;5092920;28;20035;-72
2023/09/29 01:19:58;;;;;;;11.77;2.97;;;;;;;19.18;100.00;100858.78;5092183;28;20032;-72
2023/09/29 01:22:24;;;;;;;15.52;3.00;;;;;;;19.01;100.00;100813.22;5092608;28;20024;-72
2023/09/29 01:24:49;;;;;;;16.52;3.30;;;;;;;19.26;100.00;100885.03;5085938;28;20040;-72
2023/09/29 01:27:14;;;;;;;11.38;3.67;;;;;;;19.29;100.00;100875.44;5076636;28;20028;-72
2023/09/29 01:29:41;;;;;;;14.63;3.45;;;;;;;19.37;100.00;100888.78;5089111;28;20405;-71
2023/09/29 01:32:11;;;;;;;12.05;3.10;;;;;;;19.30;100.00;100883.97;5092437;28;20034;-72
2023/09/29 01:34:37;;;;;;;13.73;2.78;;;;;;;19.22;100.00;100848.25;5090468;28;20048;-73
2023/09/29 01:37:03;;;;;;;18.05;3.10;;;;;;;19.12;100.00;100848.78;5090858;28;20151;-72
2023/09/29 01:39:29;;;;;;;11.85;3.15;;;;;;;19.11;100.00;100814.44;5084591;28;20028;-73
2023/09/29 01:41:55;;;;;;;9.80;3.05;;;;;;;19.48;100.00;100855.56;5071362;28;20040;-72
2023/09/29 01:44:20;;;;;;;11.85;3.28;;;;;;;19.16;100.00;100811.63;5071754;28;20028;-71
2023/09/29 01:46:46;;;;;;;11.25;2.90;;;;;;;19.51;100.00;100859.75;5083862;28;20062;-71
2023/09/29 01:49:12;;;;;;;13.73;2.72;;;;;;;19.49;100.00;100846.91;5090267;28;20396;-71
2023/09/29 01:51:37;;;;;;;15.13;3.28;;;;;;;19.29;100.00;100810.09;5091805;28;20039;-72
2023/09/29 01:54:03;;;;;;;11.52;2.83;;;;;;;19.64;100.00;100865.94;5093695;28;20498;-71
2023/09/29 01:56:31;;;;;;;14.20;3.33;;;;;;;19.73;100.00;100871.47;5092640;28;20455;-71
2023/09/29 01:58:59;;;;;;;10.70;3.05;;;;;;;19.82;100.00;100868.41;5091889;28;20035;-71
2023/09/29 02:01:24;;;;;;;11.63;3.10;;;;;;;19.65;100.00;100858.09;5073410;28;20032;-72
2023/09/29 02:03:50;;;;;;;9.27;2.90;;;;;;;19.75;100.00;100863.63;5073143;28;20051;-72
2023/09/29 02:06:16;;;;;;;10.55;2.90;;;;;;;19.27;100.00;100792.16;5090224;28;20395;-72
2023/09/29 02:08:42;;;;;;;13.98;3.10;;;;;;;19.67;100.00;100853.72;5092148;28;20119;-71
2023/09/29 02:11:08;;;;;;;11.57;2.90;;;;;;;19.36;100.00;100788.28;5073186;28;20035;-70
2023/09/29 02:13:34;;;;;;;12.52;3.60;;;;;;;19.49;100.00;100803.03;5091691;28;20024;-70
2023/09/29 02:16:00;;;;;;;17.73;3.20;;;;;;;19.60;100.00;100852.38;5091306;28;20543;-71
2023/09/29 02:18:27;;;;;;;15.68;2.95;;;;;;;19.32;100.00;100784.16;5091628;28;20028;-72
2023/09/29 02:20:55;;;;;;;15.65;3.38;;;;;;;19.66;100.00;100853.78;5091553;28;20475;-72
2023/09/29 02:23:22;;;;;;;12.00;3.13;;;;;;;19.51;100.00;100803.00;5091271;28;20054;-71
2023/09/29 02:25:48;;;;;;;19.08;3.10;;;;;;;19.76;100.00;100847.25;5090950;28;20097;-72
2023/09/29 02:28:14;;;;;;;12.15;2.90;;;;;;;19.88;100.00;100829.38;5073050;28;20031;-72
2023/09/29 02:30:40;;;;;;;16.58;3.55;;;;;;;19.69;100.00;100791.69;5092316;28;20421;-72
2023/09/29 02:33:06;;;;;;;15.90;3.08;;;;;;;19.57;100.00;100787.19;5111573;28;20035;-72
2023/09/29 02:35:32;;;;;;;8.65;2.92;;;;;;;19.97;100.00;100840.09;5111022;28;20051;-73
2023/09/29 02:37:58;;;;;;;8.85;2.95;;;;;;;19.85;100.00;100801.13;5111729;28;20055;-71
2023/09/29 02:40:23;;;;;;;12.57;3.00;;;;;;;20.00;100.00;100843.38;5111152;28;20555;-72
2023/09/29 02:42:49;;;;;;;10.55;2.70;;;;;;;19.75;100.00;100794.78;5093246;28;20024;-73
2023/09/29 02:45:15;;;;;;;10.00;3.20;;;;;;;20.30;100.00;100865.00;5111695;28;20023;-72
2023/09/29 02:47:42;;;;;;;12.85;2.83;;;;;;;20.00;100.00;100799.50;5111642;28;20032;-72
2023/09/29 02:50:11;;;;;;;13.07;3.47;;;;;;;20.39;100.00;100861.09;5090174;28;20024;-72
2023/09/29 02:52:38;;;;;;;12.05;2.92;;;;;;;20.63;100.00;100860.63;5072750;28;20679;-72
2023/09/29 02:55:05;;;;;;;18.63;3.17;;;;;;;20.37;100.00;100781.09;5090799;28;20042;-72
2023/09/29 02:57:30;;;;;;;14.05;3.00;;;;;;;20.69;100.00;100831.84;5090853;28;20024;-72
2023/09/29 02:59:57;;;;;;;14.73;3.03;;;;;;;20.61;100.00;100835.75;5086237;28;20115;-72
2023/09/29 03:02:23;;;;;;;23.02;3.10;;;;;;;20.69;100.00;100847.34;5090899;28;20059;-72
2023/09/29 03:04:51;;;;;;;11.02;3.08;;;;;;;20.89;100.00;100882.44;5090802;28;20059;-72
2023/09/29 03:07:16;;;;;;;17.58;3.42;;;;;;;20.48;100.00;100819.28;5090639;28;20095;-72
2023/09/29 03:09:42;;;;;;;13.43;3.22;;;;;;;20.45;100.00;100832.34;5090860;28;20479;-72
2023/09/29 03:12:08;;;;;;;12.88;3.05;;;;;;;20.65;100.00;100887.22;5071896;28;20028;-72
2023/09/29 03:14:34;;;;;;;8.40;2.53;;;;;;;20.64;100.00;100884.69;5090426;28;20032;-72
2023/09/29 03:17:00;;;;;;;10.85;3.10;;;;;;;20.37;100.00;100835.34;5090664;28;20028;-72
2023/09/29 03:19:31;;;;;;;15.02;3.35;;;;;;;20.47;100.00;100875.28;5096261;28;20027;-72
2023/09/29 03:21:58;;;;;;;16.95;3.53;;;;;;;20.53;100.00;100880.13;5110505;28;20028;-72
2023/09/29 03:24:26;;;;;;;14.50;3.45;;;;;;;20.49;100.00;100865.69;5103477;28;20123;-72
2023/09/29 03:26:52;;;;;;;13.00;3.50;;;;;;;20.59;100.00;100863.44;5067528;28;20033;-72
2023/09/29 03:29:17;;;;;;;12.68;3.08;;;;;;;20.63;100.00;100878.69;5057586;28;20035;-71
2023/09/29 03:31:43;;;;;;;17.10;3.40;;;;;;;20.32;100.00;100824.44;5104295;28;20035;-71
2023/09/29 03:34:09;;;;;;;8.80;3.20;;;;;;;20.23;100.00;100824.09;5096567;28;20020;-73
2023/09/29 03:36:34;;;;;;;11.40;3.22;;;;;;;20.74;100.00;100886.69;5093028;28;20028;-72
2023/09/29 03:39:05;;;;;;;8.10;3.08;;;;;;;20.38;100.00;100849.13;5098865;28;20036;-72
2023/09/29 03:41:30;;;;;;;12.73;3.95;;;;;;;20.56;100.00;100879.13;5094007;28;20032;-72
2023/09/29 03:43:56;;;;;;;7.72;3.15;;;;;;;20.64;100.00;100877.78;5093845;28;20077;-68
2023/09/29 03:46:24;;;;;;;10.63;3.17;;;;;;;20.64;100.00;100888.09;5092313;28;20387;-73
2023/09/29 03:48:49;;;;;;;12.18;3.58;;;;;;;20.46;100.00;100880.53;5094167;28;20020;-70
2023/09/29 03:51:22;;;;;;;11.38;3.50;;;;;;;20.58;100.00;100877.28;5093280;28;20135;-70
2023/09/29 03:53:55;;;;;;;11.05;3.60;;;;;;;20.44;100.00;100897.88;5092821;28;20034;-69
2023/09/29 03:56:23;;;;;;;7.70;3.13;;;;;;;20.16;100.00;100885.56;5093533;28;20054;-69
2023/09/29 03:58:55;;;;;;;12.15;3.10;;;;;;;20.25;100.00;100892.00;5094641;28;20489;-70
2023/09/29 04:01:21;;;;;;;18.75;4.10;;;;;;;19.79;100.00;100853.06;5090390;28;20039;-69
2023/09/29 04:03:47;;;;;;;14.95;3.95;;;;;;;19.44;100.00;100837.72;5114119;28;20482;-73
2023/09/29 04:06:12;;;;;;;19.70;4.25;;;;;;;19.71;100.00;100882.75;5105238;28;20028;-71
2023/09/29 04:08:38;;;;;;;14.20;4.20;;;;;;;19.64;100.00;100886.59;5085071;28;20032;-70
2023/09/29 04:11:04;;;;;;;12.82;3.80;;;;;;;19.04;100.00;100792.44;5073503;28;20052;-70
2023/09/29 04:13:29;;;;;;;15.85;4.20;;;;;;;19.43;100.00;100877.34;5094970;28;20421;-72
2023/09/29 04:15:55;;;;;;;10.13;3.90;;;;;;;19.35;100.00;100875.13;5092842;28;20043;-70
2023/09/29 04:18:20;;;;;;;11.02;4.03;;;;;;;19.41;100.00;100877.41;5092687;28;20119;-69
2023/09/29 04:20:46;;;;;;;16.23;4.50;;;;;;;19.23;100.00;100825.88;5092821;28;20036;-77
2023/09/29 04:23:11;;;;;;;18.50;4.50;;;;;;;19.34;100.00;100881.22;5074936;28;20039;-71
2023/09/29 04:25:37;;;;;;;13.50;4.32;;;;;;;18.94;100.00;100874.53;5093574;28;20454;-72
2023/09/29 04:28:02;;;;;;;14.82;4.82;;;;;;;19.22;100.00;100888.66;5093211;28;20028;-72
2023/09/29 04:30:28;;;;;;;16.77;5.18;;;;;;;19.02;100.00;100822.63;5093351;28;20218;-70
2023/09/29 04:32:53;;;;;;;13.73;4.57;;;;;;;19.44;100.00;100822.25;5093099;28;20028;-70
2023/09/29 04:35:19;;;;;;;14.07;4.22;;;;;;;19.23;100.00;100787.22;5092964;28;20063;-71
2023/09/29 04:37:44;;;;;;;12.55;4.60;;;;;;;18.72;100.00;100855.00;5091622;28;20111;-69
2023/09/29 04:40:11;;;;;;;19.67;4.85;;;;;;;18.32;100.00;100862.91;5092099;28;20028;-78
2023/09/29 04:42:37;;;;;;;17.13;5.13;;;;;;;18.87;100.00;100877.50;5090815;28;20028;-70
2023/09/29 04:45:03;;;;;;;23.10;5.55;;;;;;;18.49;100.00;100856.09;5073863;28;20032;-71
2023/09/29 04:47:30;;;;;;;17.23;4.90;;;;;;;18.33;100.00;100836.25;5072064;28;20040;-72
2023/09/29 04:49:55;;;;;;;21.05;5.15;;;;;;;18.58;100.00;100891.72;5073743;28;20029;-74
2023/09/29 04:52:21;;;;;;;17.65;5.38;;;;;;;19.08;100.00;100891.09;5073523;28;20417;-76
2023/09/29 04:54:46;;;;;;;14.02;4.70;;;;;;;18.73;100.00;100842.09;5073250;28;20034;-75
2023/09/29 04:57:12;;;;;;;14.18;5.38;;;;;;;18.79;100.00;100823.75;5072228;28;20024;-76
2023/09/29 04:59:37;;;;;;;14.35;5.03;;;;;;;19.06;100.00;100798.34;5053321;28;20602;-75
2023/09/29 05:02:02;;;;;;;19.05;5.07;;;;;;;20.40;100.00;100886.03;5071826;28;20038;-74
2023/09/29 05:04:28;;;;;;;15.45;5.32;;;;;;;20.85;100.00;100904.19;5072134;28;20123;-76
2023/09/29 05:06:53;;;;;;;11.95;4.88;;;;;;;21.58;100.00;100872.41;5072212;28;20051;-70
2023/09/29 05:09:19;;;;;;;12.20;4.40;;;;;;;21.36;100.00;100862.47;5054339;28;20025;-75
2023/09/29 05:11:45;;;;;;;16.77;4.80;;;;;;;20.79;100.00;100816.63;5072300;28;20407;-74
2023/09/29 05:14:11;;;;;;;12.05;4.28;;;;;;;20.73;100.00;100850.59;5072427;28;20029;-77
2023/09/29 05:16:36;;;;;;;13.40;4.43;;;;;;;20.97;100.00;100876.81;5071892;28;20021;-74
2023/09/29 05:19:02;;;;;;;11.05;4.40;;;;;;;21.03;100.00;100936.00;5072669;28;20039;-74
2023/09/29 05:21:27;;;;;;;12.45;4.57;;;;;;;20.86;100.00;100886.94;5072746;28;20462;-75
2023/09/29 05:23:53;;;;;;;13.35;4.80;;;;;;;21.29;100.00;100893.97;5054918;28;20466;-75
2023/09/29 05:26:19;;;;;;;11.35;5.00;;;;;;;21.71;100.00;100945.00;5072274;28;20461;-73
2023/09/29 05:28:45;;;;;;;17.50;5.13;;;;;;;22.02;100.00;100934.53;5072557;28;20033;-74
2023/09/29 05:31:10;;;;;;;14.35;4.60;;;;;;;21.45;100.00;100889.56;5071821;28;20403;-74
2023/09/29 05:33:36;;;;;;;17.92;5.07;;;;;;;21.87;100.00;100935.44;5072778;28;20033;-76
2023/09/29 05:36:01;;;;;;;14.63;5.00;;;;;;;22.06;100.00;100910.94;5072523;28;20052;-75
2023/09/29 05:38:27;;;;;;;14.55;5.45;;;;;;;22.20;100.00;100931.69;5072756;28;20192;-74
2023/09/29 05:40:53;;;;;;;13.57;4.90;;;;;;;22.23;100.00;100939.25;5072370;28;20189;-75
2023/09/29 05:43:18;;;;;;;15.23;5.10;;;;;;;22.07;100.00;100891.88;5072127;28;20032;-75
2023/09/29 05:45:47;;;;;;;8.02;4.50;;;;;;;21.83;100.00;100877.00;5054297;28;20059;-74
2023/09/29 05:48:14;;;;;;;10.38;4.82;;;;;;;22.29;100.00;100932.84;5071721;28;20051;-74
2023/09/29 05:50:40;;;;;;;15.18;4.90;;;;;;;22.40;100.00;100914.91;5071570;28;20036;-73
2023/09/29 05:53:06;;;;;;;11.15;4.93;;;;;;;22.78;100.00;100962.63;5071704;28;20487;-72
2023/09/29 05:55:32;;;;;;;16.95;5.13;;;;;;;22.90;100.00;100961.88;5071567;28;20029;-74
2023/09/29 05:57:58;;;;;;;13.80;5.55;;;;;;;22.96;100.00;100974.44;5071613;28;20481;-70
2023/09/29 06:00:24;;;;;;;23.13;6.00;;;;;;;22.91;100.00;100916.84;5071288;28;20037;-72
2023/09/29 06:02:50;;;;;;;17.27;5.75;;;;;;;23.60;100.00;100980.72;5071153;28;20040;-73
2023/09/29 06:05:16;;;;;;;14.52;5.00;;;;;;;23.56;100.00;100968.84;5053334;28;20078;-72
2023/09/29 06:07:41;;;;;;;15.90;5.20;;;;;;;23.82;100.00;100954.97;5069988;28;20055;-74
2023/09/29 06:10:08;;;;;;;15.35;5.90;;;;;;;23.87;100.00;100966.72;5053513;28;20467;-76
2023/09/29 06:12:34;;;;;;;12.75;5.82;;;;;;;23.61;100.00;100991.00;5072654;28;20120;-75
2023/09/29 06:15:00;;;;;;;19.02;5.68;;;;;;;23.32;100.00;100979.09;5071067;28;20511;-72
2023/09/29 06:17:25;;;;;;;16.75;5.55;;;;;;;23.67;100.00;100964.63;5053462;28;20029;-76
2023/09/29 06:19:51;;;;;;;11.02;5.85;;;;;;;24.12;100.00;100960.75;5071794;28;20036;-75
2023/09/29 06:22:17;;;;;;;14.68;5.22;;;;;;;24.15;100.00;100957.06;5071843;28;20111;-74
2023/09/29 06:24:44;;;;;;;17.52;5.35;;;;;;;24.14;100.00;100900.84;5071626;28;20029;-74
2023/09/29 06:27:10;;;;;;;14.23;5.13;;;;;;;24.28;100.00;100952.72;5053533;28;20032;-74
2023/09/29 06:29:36;;;;;;;10.98;5.43;;;;;;;24.79;100.00;100951.69;5071292;28;20033;-75
2023/09/29 06:32:02;;;;;;;19.55;5.85;;;;;;;24.38;100.00;100967.59;5071839;28;20047;-74
2023/09/29 06:34:27;;;;;;;11.63;5.30;;;;;;;24.04;100.00;100924.03;5071616;28;20032;-75
2023/09/29 06:36:52;;;;;;;14.95;5.05;;;;;;;24.43;100.00;100988.88;5070616;28;20028;-72
2023/09/29 06:39:18;;;;;;;12.10;5.55;;;;;;;24.24;100.00;100944.31;5070962;28;20033;-73
2023/09/29 06:41:43;;;;;;;15.73;5.30;;;;;;;23.87;100.00;100956.34;5070886;28;20479;-73
2023/09/29 06:44:09;;;;;;;14.75;4.32;;;;;;;23.79;100.00;100956.00;5070802;28;20029;-73
2023/09/29 06:46:34;;;;;;;15.35;4.88;;;;;;;24.07;100.00;101010.44;5069629;28;20081;-73
2023/09/29 06:49:01;;;;;;;18.00;5.07;;;;;;;23.95;100.00;100941.06;5070782;28;20119;-74
2023/09/29 06:51:27;;;;;;;13.13;4.45;;;;;;;24.83;100.00;101011.22;5053057;28;20032;-74
2023/09/29 06:53:52;;;;;;;12.35;4.55;;;;;;;23.87;100.00;100958.94;5054015;28;20028;-73
2023/09/29 06:56:18;;;;;;;9.43;4.00;;;;;;;24.66;100.00;101011.53;5052733;28;20527;-73
2023/09/29 06:58:44;;;;;;;10.20;4.00;;;;;;;24.55;100.00;101021.84;5070485;28;20034;-73
2023/09/29 07:01:10;;;;;;;15.50;4.50;;;;;;;24.13;100.00;101040.38;5071052;28;20040;-73
2023/09/29 07:03:35;;;;;;;13.98;4.75;;;;;;;23.37;100.00;100940.69;5074878;28;20059;-72
2023/09/29 07:06:01;;;;;;;13.02;4.75;;;;;;;23.81;100.00;100969.72;5074942;28;20039;-72
2023/09/29 07:08:29;;;;;;;14.45;4.80;;;;;;;24.19;100.00;101020.91;5074710;28;20487;-72
2023/09/29 07:10:55;;;;;;;13.35;5.40;;;;;;;23.54;100.00;100926.56;5057428;28;20556;-75
2023/09/29 07:13:21;;;;;;;15.77;5.00;;;;;;;24.06;100.00;101010.53;5074483;28;20028;-74
2023/09/29 07:15:46;;;;;;;9.95;4.45;;;;;;;23.79;100.00;100945.63;5078306;28;20035;-74
2023/09/29 07:18:13;;;;;;;13.57;4.82;;;;;;;24.58;100.00;101011.22;5094916;28;20090;-74
2023/09/29 07:20:41;;;;;;;18.42;4.82;;;;;;;24.80;100.00;101010.59;5095456;28;20032;-73
2023/09/29 07:23:08;;;;;;;13.30;5.20;;;;;;;24.60;100.00;101009.34;5084746;28;20020;-74
2023/09/29 07:25:34;;;;;;;10.25;5.32;;;;;;;24.44;100.00;101005.34;5076861;28;20363;-71
2023/09/29 07:27:59;;;;;;;12.45;5.15;;;;;;;24.14;100.00;100982.25;5076472;28;20478;-73
2023/09/29 07:30:25;;;;;;;13.63;5.32;;;;;;;24.82;100.00;101006.94;5094874;28;20072;-72
2023/09/29 07:32:51;;;;;;;14.90;5.78;;;;;;;24.76;100.00;101019.56;5094814;28;20024;-74
2023/09/29 07:35:16;;;;;;;12.90;5.32;;;;;;;24.99;100.00;101007.53;5094801;28;20044;-74
2023/09/29 07:37:41;;;;;;;14.55;5.18;;;;;;;24.56;100.00;101033.09;5094757;28;21852;-74
2023/09/29 07:40:08;;;;;;;12.73;5.32;;;;;;;23.75;100.00;100966.72;5092947;28;20092;-74
2023/09/29 07:42:34;;;;;;;15.10;5.28;;;;;;;24.44;100.00;101015.75;5094322;28;20066;-73
2023/09/29 07:44:59;;;;;;;8.77;5.18;;;;;;;24.09;100.00;100976.53;5094858;28;20047;-74
2023/09/29 07:47:25;;;;;;;10.80;5.90;;;;;;;24.38;100.00;100969.34;5094101;28;20149;-76
2023/09/29 07:49:50;;;;;;;11.90;5.13;;;;;;;25.10;100.00;100999.78;5094750;28;20073;-74
2023/09/29 07:52:15;;;;;;;12.85;5.38;;;;;;;25.04;100.00;101021.88;5094604;28;20028;-73
2023/09/29 07:54:41;;;;;;;15.60;5.30;;;;;;;24.93;100.00;100974.97;5094222;28;20031;-72
2023/09/29 07:57:07;;;;;;;11.95;4.47;;;;;;;25.18;100.00;100976.63;5094177;28;20043;-74
2023/09/29 07:59:32;;;;;;;13.38;4.85;;;;;;;24.90;100.00;100980.38;5094623;28;20028;-74
2023/09/29 08:01:59;;;;;;;15.43;4.80;;;;;;;24.98;100.00;100991.06;5093881;28;20040;-76
2023/09/29 08:04:25;;;;;;;13.82;4.78;;;;;;;25.19;100.00;100975.69;5094612;28;20024;-74
2023/09/29 08:06:51;;;;;;;10.70;5.20;;;;;;;25.15;100.00;101029.75;5094440;28;20035;-72
2023/09/29 08:09:16;;;;;;;19.98;5.80;;;;;;;25.10;100.00;100968.56;5094195;28;20508;-75
2023/09/29 08:11:42;;;;;;;14.18;5.32;;;;;;;24.62;100.00;100994.47;5094115;28;20572;-74
2023/09/29 08:14:08;;;;;;;19.45;4.95;;;;;;;24.46;100.00;100972.25;5094515;28;20036;-72
2023/09/29 08:16:34;;;;;;;12.75;5.00;;;;;;;24.49;100.00;100965.06;5094553;28;20032;-75
2023/09/29 08:19:01;;;;;;;17.48;5.22;;;;;;;24.85;100.00;101027.56;5093873;28;20031;-73
2023/09/29 08:21:26;;;;;;;9.55;4.65;;;;;;;24.63;100.00;101023.91;5075665;28;20032;-74
2023/09/29 08:23:51;;;;;;;10.70;5.07;;;;;;;24.52;100.00;101027.25;5093672;28;20039;-75
2023/09/29 08:26:17;;;;;;;16.30;4.82;;;;;;;24.67;100.00;100981.97;5075372;28;20043;-74
2023/09/29 08:28:43;;;;;;;15.95;4.90;;;;;;;24.78;100.00;100968.25;5093412;28;20067;-74
2023/09/29 08:31:16;;;;;;;14.85;4.97;;;;;;;24.76;100.00;100972.75;5075523;28;20399;-75
2023/09/29 08:33:42;;;;;;;13.75;4.90;;;;;;;25.13;100.00;101023.84;5075370;28;20039;-74
2023/09/29 08:36:08;;;;;;;14.65;4.70;;;;;;;24.80;100.00;101023.59;5093930;28;20056;-73
2023/09/29 08:38:33;;;;;;;15.05;5.00;;;;;;;24.44;100.00;100929.91;5076183;28;20043;-75
2023/09/29 08:41:05;;;;;;;26.13;6.57;;;;;;;25.13;100.00;101002.16;5093915;28;20490;-75
2023/09/29 08:43:32;;;;;;;15.75;4.78;;;;;;;;;;5093763;28;20753;-75
2023/09/29 08:46:00;;;;;;;20.77;4.95;;;;;;;24.74;100.00;100969.41;5093795;28;20059;-75
2023/09/29 08:48:28;;;;;;;13.98;4.65;;;;;;;25.22;100.00;101012.75;5094434;28;20059;-75
2023/09/29 08:50:57;;;;;;;12.45;4.60;;;;;;;24.93;100.00;101016.59;5093757;28;20032;-72
2023/09/29 08:53:26;;;;;;;8.90;4.40;;;;;;;24.79;100.00;100968.16;5093747;28;20028;-73
2023/09/29 08:55:54;;;;;;;13.13;4.38;;;;;;;25.13;100.00;100971.75;5093645;28;20046;-74
2023/09/29 08:58:21;;;;;;;9.25;4.20;;;;;;;25.04;100.00;101032.28;5093705;28;20032;-74
2023/09/29 09:00:48;;;;;;;10.73;4.40;;;;;;;24.67;100.00;100923.91;5093163;28;20093;-76
2023/09/29 09:03:14;;;;;;;10.90;4.38;;;;;;;25.53;100.00;101012.19;5093046;28;20024;-73
2023/09/29 09:05:39;;;;;;;14.77;4.80;;;;;;;25.20;100.00;101014.63;5093363;28;20038;-74
2023/09/29 09:08:05;;;;;;;14.38;4.55;;;;;;;25.92;100.00;101008.44;5074645;28;20024;-73
2023/09/29 09:10:35;;;;;;;11.93;4.47;;;;;;;26.11;100.00;101008.72;5092983;28;20028;-73
2023/09/29 09:13:05;;;;;;;12.50;4.57;;;;;;;26.16;100.00;100962.28;5092989;28;20427;-75
2023/09/29 09:15:31;;;;;;;12.73;4.70;;;;;;;25.92;100.00;101015.41;5093169;28;20509;-75
2023/09/29 09:17:57;;;;;;;12.93;4.40;;;;;;;25.96;100.00;101027.25;5092578;28;20115;-72
2023/09/29 09:20:23;;;;;;;9.13;4.20;;;;;;;26.20;100.00;101020.25;5092512;28;20028;-75
2023/09/29 09:23:00;;;;;;;11.85;4.10;;;;;;;25.70;100.00;101027.44;5074499;28;20062;-75
2023/09/29 09:25:35;;;;;;;10.15;4.10;;;;;;;25.90;100.00;101030.34;4734867;28;10000107;-71
2023/09/29 09:28:02;;;;;;;13.35;4.55;;;;;;;25.60;100.00;100992.59;5087358;28;20036;-71
2023/09/29 09:30:37;;;;;;;17.83;4.28;;;;;;;25.49;100.00;101042.03;5070685;28;20073;-74
2023/09/29 09:33:06;;;;;;;11.43;4.00;;;;;;;25.73;100.00;101029.00;5071201;28;20082;-74
2023/09/29 09:35:33;;;;;;;11.02;4.75;;;;;;;25.45;100.00;100995.50;5088657;28;20496;-71
2023/09/29 09:38:02;;;;;;;9.90;4.18;;;;;;;25.58;100.00;101033.56;5088288;28;20036;-71
2023/09/29 09:40:28;;;;;;;10.30;3.70;;;;;;;25.07;100.00;100987.81;5088696;28;20028;-70
2023/09/29 09:42:54;;;;;;;10.43;4.05;;;;;;;25.36;100.00;101046.44;5087869;28;20031;-71
2023/09/29 09:45:24;;;;;;;15.45;4.47;;;;;;;25.10;100.00;101029.25;5070686;28;20031;-72
2023/09/29 09:47:53;;;;;;;12.82;4.15;;;;;;;25.18;100.00;101033.91;5086372;28;20730;-73
2023/09/29 09:50:19;;;;;;;13.77;4.10;;;;;;;24.70;100.00;100999.97;5091814;28;20035;-72
2023/09/29 09:52:50;;;;;;;11.48;3.90;;;;;;;24.74;100.00;100996.25;5092284;28;20028;-73
2023/09/29 09:55:17;;;;;;;13.43;4.40;;;;;;;25.32;100.00;101036.34;5073697;28;20178;-72
2023/09/29 09:57:45;;;;;;;13.75;4.15;;;;;;;25.38;100.00;101034.13;5091063;28;20032;-72
2023/09/29 10:00:12;;;;;;;10.23;4.00;;;;;;;25.66;100.00;101036.44;5090596;28;20577;-71
2023/09/29 10:02:43;;;;;;;12.20;4.20;;;;;;;25.43;100.00;100972.13;5090705;28;20130;-72
2023/09/29 10:05:17;;;;;;;10.27;3.83;;;;;;;25.95;100.00;100978.69;5091209;28;20030;-72
2023/09/29 10:07:55;;;;;;;12.48;3.97;;;;;;;26.03;100.00;100976.34;5090966;28;20085;-72
2023/09/29 10:10:31;;;;;;;12.65;4.30;;;;;;;26.58;100.00;101018.13;5091040;28;20085;-73
2023/09/29 10:13:01;;;;;;;12.35;3.92;;;;;;;26.09;100.00;101025.41;5092140;28;20097;-73
2023/09/29 10:15:30;;;;;;;11.75;3.95;;;;;;;26.90;100.00;101015.63;5093353;28;20077;-72
2023/09/29 10:18:17;;;;;;;11.82;3.78;;;;;;;27.45;100.00;101025.94;5092277;28;20034;-72
2023/09/29 10:20:44;;;;;;;10.18;3.70;;;;;;;27.27;100.00;100976.00;5091307;28;20116;-73
2023/09/29 10:23:13;;;;;;;11.35;3.90;;;;;;;28.03;100.00;101021.97;5091101;28;20089;-73
2023/09/29 10:25:44;;;;;;;12.23;4.38;;;;;;;27.24;100.00;100991.06;5073375;28;20175;-72
2023/09/29 10:28:12;;;;;;;13.18;4.57;;;;;;;27.42;100.00;100917.25;5073141;28;20040;-73
2023/09/29 10:30:39;;;;;;;8.43;4.15;;;;;;;28.27;100.00;100998.97;5091274;28;20027;-73
2023/09/29 10:33:06;;;;;;;30.65;6.18;;;;;;;27.64;100.00;101007.78;5091385;28;20081;-73
2023/09/29 10:35:33;;;;;;;8.25;4.20;;;;;;;28.15;100.00;100959.00;5090924;28;20113;-73
2023/09/29 10:38:06;;;;;;;12.15;3.92;;;;;;;27.87;100.00;100998.06;5091372;28;20152;-73
2023/09/29 10:40:32;;;;;;;11.30;3.88;;;;;;;29.02;100.00;100981.84;5091146;28;20024;-73
2023/09/29 10:43:02;;;;;;;13.15;3.88;;;;;;;28.85;100.00;100995.63;5091268;28;20035;-73
2023/09/29 10:45:36;;;;;;;11.43;4.00;;;;;;;28.03;100.00;100953.97;5091269;28;20375;-72
2023/09/29 10:48:05;;;;;;;10.27;4.10;;;;;;;29.11;100.00;100933.88;5090953;28;20077;-73
2023/09/29 10:50:37;;;;;;;9.55;4.30;;;;;;;28.12;100.00;100908.72;5090983;28;20032;-73
2023/09/29 10:53:03;;;;;;;10.20;3.88;;;;;;;27.55;100.00;101019.03;5091099;28;20024;-73
2023/09/29 10:55:30;;;;;;;11.38;3.83;;;;;;;27.47;100.00;100939.56;5090938;28;20031;-73
2023/09/29 10:57:58;;;;;;;9.15;3.78;;;;;;;29.10;100.00;100989.88;5091123;28;20066;-73
2023/09/29 11:00:24;;;;;;;12.82;4.10;;;;;;;27.99;100.00;100965.69;5090758;28;20032;-73
2023/09/29 11:02:50;;;;;;;15.07;4.30;;;;;;;27.80;100.00;101000.34;5090730;28;20035;-74
2023/09/29 11:05:17;;;;;;;8.73;3.92;;;;;;;28.39;100.00;100939.50;5091057;28;20103;-73
2023/09/29 11:07:50;;;;;;;11.40;3.65;;;;;;;28.81;100.00;100981.16;5090875;28;21023;-73
2023/09/29 11:10:20;;;;;;;13.07;4.25;;;;;;;28.42;100.00;100936.63;5090958;28;20028;-74